Time;durP1;ratioP1;P1;durP2;ratioP2;P2;SDS_P1;SDS_P2;PMS_P1;PMS_P2;Temp;Humidity;BMP_temperature;BMP_pressure;BME280_temperature;BME280_humidity;BME280_pressure;Samples;Min_cycle;Max_cycle;Signal;HPM_P1;HPM_P2
2023/06/20 00:00:55;;;;;;;11.70;10.60;;;;;;;17.11;69.85;97909.41;106990;1279;22743;-79
2023/06/20 00:03:41;;;;;;;10.70;9.60;;;;;;;17.16;69.80;97904.11;106853;1279;26520;-79
2023/06/20 00:06:08;;;;;;;11.30;10.30;;;;;;;17.16;69.83;97903.17;106515;1279;22552;-79
2023/06/20 00:08:35;;;;;;;13.20;11.70;;;;;;;17.11;69.76;97900.93;106556;1279;22962;-78
2023/06/20 00:11:01;;;;;;;12.30;11.10;;;;;;;17.02;70.49;97903.75;106604;1279;23058;-78
2023/06/20 00:13:28;;;;;;;14.30;10.90;;;;;;;16.91;70.50;97906.05;106560;1279;22545;-80
2023/06/20 00:15:57;;;;;;;12.60;11.40;;;;;;;16.85;70.29;97908.33;106927;1279;24669;-77
2023/06/20 00:18:25;;;;;;;10.80;9.80;;;;;;;16.78;71.04;97907.05;106630;1279;22527;-78
2023/06/20 00:20:54;;;;;;;11.40;10.40;;;;;;;16.73;72.29;97909.11;106595;1279;25128;-79
2023/06/20 00:23:21;;;;;;;11.50;10.50;;;;;;;16.64;72.13;97912.70;106864;1279;24363;-79
2023/06/20 00:25:48;;;;;;;12.60;10.70;;;;;;;16.52;71.88;97913.52;106990;1279;25463;-79
2023/06/20 00:28:17;;;;;;;12.70;11.50;;;;;;;16.38;71.43;97914.36;106898;1279;24414;-80
2023/06/20 00:30:44;;;;;;;11.90;10.70;;;;;;;16.22;71.34;97920.73;107058;1270;24190;-79
2023/06/20 00:33:11;;;;;;;12.20;11.10;;;;;;;16.12;71.68;97922.97;106892;1279;22560;-79
2023/06/20 00:35:38;;;;;;;13.20;11.50;;;;;;;16.08;71.69;97922.41;106909;1279;22536;-80
2023/06/20 00:38:06;;;;;;;13.40;11.70;;;;;;;16.04;71.90;97925.91;106975;1279;25558;-78
2023/06/20 00:40:33;;;;;;;12.80;11.60;;;;;;;15.98;71.92;97927.71;106643;1279;25800;-78
2023/06/20 00:42:59;;;;;;;13.30;11.70;;;;;;;15.90;71.86;97932.56;106879;1279;22578;-79
2023/06/20 00:45:32;;;;;;;13.30;12.10;;;;;;;15.83;72.09;97934.16;106947;1279;25400;-79
2023/06/20 00:48:02;;;;;;;14.20;12.60;;;;;;;15.77;72.24;97931.33;106942;1279;22547;-78
2023/06/20 00:50:31;;;;;;;13.60;12.20;;;;;;;15.75;72.31;97933.02;106987;1279;24985;-79
2023/06/20 00:53:04;;;;;;;14.50;13.00;;;;;;;15.75;72.47;97931.22;106930;1280;25480;-79
2023/06/20 00:55:34;;;;;;;12.80;11.60;;;;;;;15.73;72.61;97927.36;106994;1261;24065;-80
2023/06/20 00:58:03;;;;;;;11.40;10.40;;;;;;;15.69;72.89;97930.77;106946;1279;22580;-80
2023/06/20 01:00:32;;;;;;;12.40;10.90;;;;;;;15.65;73.77;97930.63;107090;1279;22570;-79
2023/06/20 01:03:03;;;;;;;11.90;10.80;;;;;;;15.69;74.72;97926.12;107074;1279;22534;-79
2023/06/20 01:05:30;;;;;;;11.10;9.90;;;;;;;15.71;74.43;97922.55;107050;1279;22547;-78
2023/06/20 01:08:33;;;;;;;12.50;10.30;;;;;;;15.68;74.73;97921.04;106585;1279;22523;-79
2023/06/20 01:11:25;;;;;;;11.50;10.40;;;;;;;15.64;76.19;97923.73;106543;1279;22583;-79
2023/06/20 01:14:00;;;;;;;12.30;11.10;;;;;;;15.52;77.91;97924.36;106732;1279;24368;-79
2023/06/20 01:16:47;;;;;;;11.40;10.30;;;;;;;15.41;77.43;97926.11;106560;1279;22547;-79
2023/06/20 01:19:14;;;;;;;11.40;10.20;;;;;;;15.46;76.86;97917.79;107008;1279;25356;-79
2023/06/20 01:21:50;;;;;;;11.30;10.30;;;;;;;15.49;76.19;97918.38;107045;1279;25436;-79
2023/06/20 01:24:35;;;;;;;10.70;9.70;;;;;;;15.55;76.20;97917.05;106922;1279;24232;-79
2023/06/20 01:27:17;;;;;;;10.90;10.00;;;;;;;15.59;76.56;97913.41;106485;1279;25526;-78
2023/06/20 01:30:02;;;;;;;12.90;11.70;;;;;;;15.57;76.21;97916.81;106596;1279;25403;-78
2023/06/20 01:32:32;;;;;;;13.40;12.10;;;;;;;15.50;76.06;97913.98;107011;1279;25236;-79
2023/06/20 01:35:25;;;;;;;13.30;12.00;;;;;;;15.49;76.01;97913.16;106640;1279;22523;-78
2023/06/20 01:37:58;;;;;;;12.30;11.20;;;;;;;15.52;76.07;97911.39;107009;1279;22620;-78
2023/06/20 01:40:26;;;;;;;12.20;11.00;;;;;;;15.53;76.60;97913.46;107044;1279;22545;-78
2023/06/20 01:42:58;;;;;;;11.40;10.40;;;;;;;15.48;76.64;97913.11;106601;1279;23458;-79
2023/06/20 01:45:28;;;;;;;12.80;11.70;;;;;;;15.48;76.61;97912.80;107064;1279;22528;-79
2023/06/20 01:48:00;;;;;;;12.20;11.10;;;;;;;15.46;76.74;97913.92;106697;1279;22614;-79
2023/06/20 01:50:29;;;;;;;11.80;10.60;;;;;;;15.44;76.92;97917.73;106904;1279;25325;-79
2023/06/20 01:52:57;;;;;;;12.90;11.60;;;;;;;15.43;76.78;97910.77;106535;1279;22583;-78
2023/06/20 01:55:28;;;;;;;14.20;11.10;;;;;;;15.46;76.76;97914.09;107000;1279;22579;-78
2023/06/20 01:57:59;;;;;;;14.20;12.60;;;;;;;15.51;76.77;97907.63;106933;1267;22646;-79
2023/06/20 02:00:27;;;;;;;12.60;11.60;;;;;;;15.54;76.93;97903.42;106983;1279;22601;-80
2023/06/20 02:02:56;;;;;;;12.30;11.10;;;;;;;15.57;76.90;97906.23;106974;1279;22549;-80
2023/06/20 02:05:26;;;;;;;12.40;11.20;;;;;;;15.58;76.94;97904.98;107013;1279;22918;-79
2023/06/20 02:07:55;;;;;;;13.10;11.90;;;;;;;15.56;76.80;97908.67;106900;1279;24472;-78
2023/06/20 02:10:24;;;;;;;12.20;10.20;;;;;;;15.50;77.29;97910.20;106608;1279;22534;-79
2023/06/20 02:12:54;;;;;;;14.20;11.50;;;;;;;15.43;77.82;97909.30;107035;1279;22548;-78
2023/06/20 02:15:23;;;;;;;12.90;11.60;;;;;;;15.35;77.76;97908.29;106514;1279;23954;-79
2023/06/20 02:17:51;;;;;;;13.10;11.90;;;;;;;15.27;78.07;97913.02;106552;1279;24234;-78
2023/06/20 02:20:17;;;;;;;13.60;12.30;;;;;;;15.19;78.18;97914.96;106727;1279;25448;-81
2023/06/20 02:22:46;;;;;;;14.10;12.80;;;;;;;15.11;78.13;97913.39;106889;1279;22540;-79
2023/06/20 02:25:21;;;;;;;12.90;11.50;;;;;;;15.03;77.66;97909.39;107034;1279;22550;-79
2023/06/20 02:27:52;;;;;;;12.70;11.50;;;;;;;14.97;77.80;97908.37;107095;1279;22584;-79
2023/06/20 02:30:23;;;;;;;12.90;11.10;;;;;;;14.93;78.05;97910.53;107049;1279;24231;-79
2023/06/20 02:32:52;;;;;;;11.50;10.40;;;;;;;14.87;78.75;97909.70;106956;1279;22592;-78
2023/06/20 02:35:21;;;;;;;14.00;12.70;;;;;;;14.81;78.75;97910.05;106949;1279;22657;-78
2023/06/20 02:37:51;;;;;;;14.10;12.20;;;;;;;14.71;78.77;97913.90;106632;1279;25469;-78
2023/06/20 02:40:22;;;;;;;11.60;10.60;;;;;;;14.61;79.31;97910.34;106594;1279;22693;-79
2023/06/20 02:42:49;;;;;;;11.50;10.40;;;;;;;14.63;80.30;97905.89;106797;1279;22540;-79
2023/06/20 02:45:17;;;;;;;12.20;11.10;;;;;;;14.67;81.48;97911.57;106509;1279;23430;-79
2023/06/20 02:48:01;;;;;;;13.00;11.90;;;;;;;14.60;80.23;97913.84;107024;1279;23961;-79
2023/06/20 02:50:51;;;;;;;12.70;11.50;;;;;;;14.49;79.65;97912.91;106937;1257;22533;-78
2023/06/20 02:53:42;;;;;;;12.80;11.40;;;;;;;14.44;80.15;97917.64;106635;1279;22596;-79
2023/06/20 02:56:12;;;;;;;11.60;10.50;;;;;;;14.43;80.99;97918.40;107012;1279;22651;-79
2023/06/20 02:58:45;;;;;;;12.30;11.00;;;;;;;14.46;81.52;97917.73;106998;1279;23850;-79
2023/06/20 03:01:18;;;;;;;12.70;10.90;;;;;;;14.47;81.76;97915.73;106493;1279;22547;-78
2023/06/20 03:03:45;;;;;;;11.90;10.70;;;;;;;14.50;82.11;97912.94;106547;1279;22536;-79
2023/06/20 03:06:15;;;;;;;12.00;10.70;;;;;;;14.57;82.50;97911.84;106986;1279;24378;-79
2023/06/20 03:08:49;;;;;;;11.30;10.30;;;;;;;14.65;83.00;97912.17;106831;1279;22792;-80
2023/06/20 03:11:16;;;;;;;11.50;10.40;;;;;;;14.72;83.05;97908.70;106858;1279;22629;-79
2023/06/20 03:13:43;;;;;;;12.30;11.20;;;;;;;14.77;83.32;97904.86;106935;1279;22622;-79
2023/06/20 03:16:10;;;;;;;12.30;11.00;;;;;;;14.80;83.28;97906.45;106519;1279;24392;-79
2023/06/20 03:18:37;;;;;;;11.10;10.10;;;;;;;14.81;83.13;97907.71;106531;1279;22550;-79
2023/06/20 03:21:04;;;;;;;11.50;10.40;;;;;;;14.83;82.96;97909.80;106970;1279;24351;-78
2023/06/20 03:23:50;;;;;;;11.10;10.10;;;;;;;14.87;82.72;97908.90;106964;1279;22590;-79
2023/06/20 03:26:17;;;;;;;11.50;10.40;;;;;;;14.93;82.84;97908.61;106952;1279;25499;-79
2023/06/20 03:28:43;;;;;;;11.90;10.50;;;;;;;15.00;82.70;97908.80;106992;1279;22549;-80
2023/06/20 03:31:11;;;;;;;11.40;10.40;;;;;;;15.10;82.57;97910.95;106919;1279;25454;-79
2023/06/20 03:33:38;;;;;;;12.00;10.90;;;;;;;15.17;82.20;97912.48;106906;1279;24410;-79
2023/06/20 03:36:05;;;;;;;12.10;10.90;;;;;;;15.25;82.00;97911.40;106933;1279;22597;-80
2023/06/20 03:38:32;;;;;;;13.00;10.80;;;;;;;15.36;82.03;97911.88;106938;1279;25328;-80
2023/06/20 03:41:00;;;;;;;12.20;11.00;;;;;;;15.49;81.97;97911.99;106924;1279;25715;-80
2023/06/20 03:43:27;;;;;;;10.60;9.60;;;;;;;15.59;81.88;97911.82;106926;1279;25304;-79
2023/06/20 03:45:54;;;;;;;12.10;11.00;;;;;;;15.67;81.84;97913.86;106858;1279;24237;-80
2023/06/20 03:48:21;;;;;;;12.60;11.30;;;;;;;15.77;81.82;97914.23;106997;1280;22977;-80
2023/06/20 03:50:48;;;;;;;11.40;10.50;;;;;;;15.87;81.63;97913.20;107015;1280;23253;-80
2023/06/20 03:53:16;;;;;;;11.20;10.00;;;;;;;15.97;81.48;97914.64;106542;1279;25246;-79
2023/06/20 03:55:43;;;;;;;9.50;8.50;;;;;;;16.11;81.52;97914.27;106965;1280;25399;-79
2023/06/20 03:58:10;;;;;;;10.50;9.30;;;;;;;16.27;81.78;97911.38;106981;1279;22646;-80
2023/06/20 04:00:38;;;;;;;9.30;8.50;;;;;;;16.44;81.87;97915.20;107006;1279;24027;-80
2023/06/20 04:03:05;;;;;;;11.20;10.20;;;;;;;16.60;81.61;97912.30;106933;1279;24212;-80
2023/06/20 04:05:32;;;;;;;11.20;10.00;;;;;;;16.72;81.23;97905.66;106922;1279;25684;-79
2023/06/20 04:08:00;;;;;;;12.00;10.80;;;;;;;16.80;81.03;97907.26;106991;1279;24270;-80
2023/06/20 04:10:28;;;;;;;12.10;10.90;;;;;;;16.88;80.88;97910.08;106939;1279;26632;-79
2023/06/20 04:12:54;;;;;;;14.60;11.30;;;;;;;16.94;80.93;97912.30;106816;1279;23567;-79
2023/06/20 04:15:21;;;;;;;17.20;11.60;;;;;;;17.02;80.69;97918.05;106844;1279;22723;-79
2023/06/20 04:17:48;;;;;;;20.80;12.50;;;;;;;17.09;80.52;97920.94;107063;1279;22658;-79
2023/06/20 04:20:15;;;;;;;22.10;14.50;;;;;;;17.20;80.51;97920.96;107114;1279;22543;-78
2023/06/20 04:22:46;;;;;;;20.80;13.20;;;;;;;17.32;80.44;97922.34;107243;1278;22757;-80
2023/06/20 04:25:14;;;;;;;17.80;15.30;;;;;;;17.44;80.44;97925.52;107188;1264;22538;-80
2023/06/20 04:27:43;;;;;;;20.10;14.60;;;;;;;17.54;80.29;97927.84;106999;1279;22546;-79
2023/06/20 04:30:10;;;;;;;18.40;13.60;;;;;;;17.62;80.06;97932.36;107007;1279;22538;-79
2023/06/20 04:32:39;;;;;;;19.70;15.30;;;;;;;17.67;79.85;97936.23;107030;1279;23494;-78
2023/06/20 04:35:10;;;;;;;17.00;13.60;;;;;;;17.74;79.87;97939.88;106491;1279;22524;-77
2023/06/20 04:37:38;;;;;;;18.20;15.30;;;;;;;17.84;79.73;97943.23;106757;1279;22544;-78
2023/06/20 04:40:08;;;;;;;17.10;15.50;;;;;;;17.94;79.62;97942.41;107024;1279;25459;-78
2023/06/20 04:42:35;;;;;;;17.10;15.30;;;;;;;18.03;79.35;97940.81;106653;1280;25489;-78
2023/06/20 04:45:02;;;;;;;17.70;14.60;;;;;;;18.10;79.24;97943.42;106416;1279;222390;-80
2023/06/20 04:47:32;;;;;;;20.50;13.70;;;;;;;18.19;79.11;97943.91;106905;1279;25533;-81
2023/06/20 04:50:03;;;;;;;21.40;13.20;;;;;;;18.29;79.14;97946.91;107063;1279;25278;-78
2023/06/20 04:52:31;;;;;;;14.10;12.60;;;;;;;18.42;79.15;97947.58;106983;1279;25430;-79
2023/06/20 04:55:03;;;;;;;12.30;11.10;;;;;;;18.56;79.27;97941.79;107168;1279;22577;-79
2023/06/20 04:57:31;;;;;;;11.20;10.10;;;;;;;18.74;79.19;97943.17;107065;1279;25385;-79
2023/06/20 04:59:58;;;;;;;13.30;9.70;;;;;;;18.93;78.94;97942.50;106899;1279;22542;-78
2023/06/20 05:02:26;;;;;;;12.80;9.80;;;;;;;19.11;78.70;97941.06;106634;1279;24232;-78
2023/06/20 05:04:53;;;;;;;10.70;9.30;;;;;;;19.29;78.44;97944.52;107026;1279;22578;-78
2023/06/20 05:07:21;;;;;;;12.90;10.20;;;;;;;19.46;78.22;97946.34;107069;1279;22593;-78
2023/06/20 05:09:49;;;;;;;10.20;9.10;;;;;;;19.64;77.72;97943.37;106626;1279;22692;-79
2023/06/20 05:12:16;;;;;;;10.40;9.10;;;;;;;19.79;77.12;97944.10;106592;1279;23861;-78
2023/06/20 05:14:43;;;;;;;10.90;9.70;;;;;;;19.92;76.36;97946.17;107013;1279;22561;-78
2023/06/20 05:17:09;;;;;;;11.70;10.10;;;;;;;20.05;75.97;97945.19;106510;1279;25343;-78
2023/06/20 05:19:36;;;;;;;11.30;10.10;;;;;;;20.18;75.67;97944.91;106564;1279;24035;-78
2023/06/20 05:22:03;;;;;;;9.90;8.50;;;;;;;20.33;75.29;97945.42;106537;1279;22544;-78
2023/06/20 05:24:29;;;;;;;10.60;9.20;;;;;;;20.45;75.01;97940.63;106977;1279;25347;-78
2023/06/20 05:26:56;;;;;;;9.90;8.80;;;;;;;20.55;74.63;97941.57;106598;1279;22546;-78
2023/06/20 05:29:23;;;;;;;9.70;8.80;;;;;;;20.66;74.36;97942.24;106879;1279;22568;-78
2023/06/20 05:31:49;;;;;;;23.10;9.50;;;;;;;20.78;74.30;97944.79;106500;1269;23420;-78
2023/06/20 05:34:16;;;;;;;10.10;8.90;;;;;;;20.90;73.56;97943.66;106932;1279;22579;-78
2023/06/20 05:36:46;;;;;;;10.30;9.00;;;;;;;21.00;73.10;97942.73;106544;1279;25335;-79
2023/06/20 05:39:13;;;;;;;10.50;9.50;;;;;;;21.04;72.84;97946.48;106914;1279;22597;-78
2023/06/20 05:41:42;;;;;;;9.90;8.80;;;;;;;21.13;72.54;97950.30;106642;1279;22667;-78
2023/06/20 05:44:08;;;;;;;11.60;9.70;;;;;;;21.23;72.26;97950.70;106540;1279;22534;-78
2023/06/20 05:46:35;;;;;;;11.00;9.90;;;;;;;21.32;71.42;97954.05;106670;1279;24261;-80
2023/06/20 05:49:03;;;;;;;12.20;10.70;;;;;;;21.39;71.40;97953.77;106546;1279;23936;-79
2023/06/20 05:51:30;;;;;;;10.90;9.80;;;;;;;21.46;71.12;97950.92;106617;1279;22675;-79
2023/06/20 05:53:57;;;;;;;12.00;10.80;;;;;;;21.54;70.67;97951.73;107006;1279;24350;-79
2023/06/20 05:56:24;;;;;;;14.70;11.50;;;;;;;21.63;69.96;97953.52;107009;1279;22731;-79
2023/06/20 05:58:51;;;;;;;14.30;12.80;;;;;;;21.67;69.06;97958.04;106978;1279;22662;-80
2023/06/20 06:01:17;;;;;;;13.30;12.00;;;;;;;21.73;69.34;97962.26;107005;1279;22598;-81
2023/06/20 06:03:47;;;;;;;12.30;10.20;;;;;;;21.79;68.70;97964.31;107121;1279;22540;-81
2023/06/20 06:06:14;;;;;;;12.50;10.10;;;;;;;21.86;68.69;97965.25;107066;1279;22539;-82
2023/06/20 06:08:41;;;;;;;11.00;9.80;;;;;;;21.92;68.08;97960.09;106941;1279;22788;-81
2023/06/20 06:11:07;;;;;;;13.20;10.30;;;;;;;22.00;68.07;97961.98;106886;1279;22568;-81
2023/06/20 06:13:34;;;;;;;11.70;9.00;;;;;;;22.11;68.07;97966.98;106888;1279;22586;-82
2023/06/20 06:16:01;;;;;;;9.80;8.80;;;;;;;22.20;67.25;97966.97;106849;1279;25247;-81
2023/06/20 06:18:30;;;;;;;11.30;8.60;;;;;;;22.28;66.96;97967.85;106877;1276;24392;-82
2023/06/20 06:20:57;;;;;;;8.70;7.80;;;;;;;22.37;66.76;97966.15;106880;1279;22658;-82
2023/06/20 06:23:24;;;;;;;8.60;7.80;;;;;;;22.46;65.97;97964.20;106916;1279;22648;-82
2023/06/20 06:25:52;;;;;;;9.70;8.20;;;;;;;22.58;65.96;97960.72;106886;1279;22545;-81
2023/06/20 06:28:18;;;;;;;9.50;8.00;;;;;;;22.75;65.82;97964.66;106925;1279;22535;-80
2023/06/20 06:30:45;;;;;;;10.10;8.70;;;;;;;22.89;65.15;97965.04;106589;1279;24383;-80
2023/06/20 06:33:13;;;;;;;10.70;7.70;;;;;;;23.04;64.50;97968.49;106953;1279;22545;-79
2023/06/20 06:35:40;;;;;;;12.00;8.00;;;;;;;23.16;64.09;97967.34;106987;1279;22665;-82
2023/06/20 06:38:07;;;;;;;11.30;8.30;;;;;;;23.28;63.75;97966.48;106972;1279;22545;-80
2023/06/20 06:40:34;;;;;;;10.60;7.70;;;;;;;23.35;63.09;97969.52;106849;1279;23935;-80
2023/06/20 06:43:00;;;;;;;10.30;8.30;;;;;;;23.37;63.06;97968.36;107137;1275;22643;-82
2023/06/20 06:45:29;;;;;;;9.80;8.50;;;;;;;23.44;63.01;97968.02;106989;1279;25792;-82
2023/06/20 06:47:55;;;;;;;9.80;8.00;;;;;;;23.51;62.70;97968.85;106955;1279;25340;-82
2023/06/20 06:50:22;;;;;;;11.20;8.90;;;;;;;23.61;62.10;97970.40;106978;1279;22534;-82
2023/06/20 06:52:49;;;;;;;11.40;8.80;;;;;;;23.70;61.85;97973.70;107040;1279;25352;-80
2023/06/20 06:55:16;;;;;;;9.10;8.30;;;;;;;23.82;61.45;97971.19;107066;1279;24327;-79
2023/06/20 06:57:43;;;;;;;10.80;9.40;;;;;;;23.95;60.82;97973.92;106907;1279;22537;-80
2023/06/20 07:00:12;;;;;;;10.60;8.90;;;;;;;24.05;60.77;97974.45;106998;1266;22735;-80
2023/06/20 07:02:39;;;;;;;14.20;12.50;;;;;;;24.17;60.07;97969.46;106549;1279;24229;-80
2023/06/20 07:05:10;;;;;;;10.70;8.70;;;;;;;24.23;59.93;97969.57;107001;1279;24283;-82
2023/06/20 07:07:36;;;;;;;11.90;8.90;;;;;;;24.32;60.31;97973.15;107183;1279;22558;-80
2023/06/20 07:10:04;;;;;;;13.70;9.40;;;;;;;24.43;59.98;97969.42;107159;1278;22560;-80
2023/06/20 07:12:31;;;;;;;12.40;8.80;;;;;;;24.54;59.48;97975.67;107431;1278;22685;-80
2023/06/20 07:14:57;;;;;;;15.70;10.50;;;;;;;24.63;58.79;97979.95;106797;1278;24186;-80
2023/06/20 07:17:24;;;;;;;11.90;8.90;;;;;;;24.70;58.64;97977.61;107851;1272;23033;-79
2023/06/20 07:19:52;;;;;;;11.20;8.40;;;;;;;24.85;58.98;97979.12;107415;1272;22558;-79
2023/06/20 07:22:20;;;;;;;10.40;8.60;;;;;;;24.98;58.11;97978.83;107341;1278;23025;-79
2023/06/20 07:24:46;;;;;;;12.30;8.30;;;;;;;25.06;57.44;97977.96;107129;1278;22535;-79
2023/06/20 07:27:18;;;;;;;14.30;8.20;;;;;;;25.14;57.49;97975.33;107289;1278;22641;-79
2023/06/20 07:29:45;;;;;;;11.30;8.40;;;;;;;25.23;57.27;97976.81;107309;1278;25399;-79
2023/06/20 07:32:14;;;;;;;10.00;8.40;;;;;;;25.35;57.47;97981.85;107350;1278;22521;-79
2023/06/20 07:34:40;;;;;;;8.80;7.80;;;;;;;25.50;56.33;97986.02;107409;1272;24445;-79
2023/06/20 07:37:07;;;;;;;8.70;7.80;;;;;;;25.62;55.94;97989.71;107408;1278;25336;-79
2023/06/20 07:39:34;;;;;;;10.00;8.50;;;;;;;25.73;55.56;97985.35;107379;1272;22674;-79
2023/06/20 07:42:00;;;;;;;9.40;8.10;;;;;;;25.84;55.55;97986.77;107261;1278;22549;-79
2023/06/20 07:44:27;;;;;;;9.30;7.50;;;;;;;25.99;54.93;97986.66;107247;1278;22534;-80
2023/06/20 07:46:53;;;;;;;10.20;7.20;;;;;;;26.02;53.39;97984.76;107328;1278;22772;-78
2023/06/20 07:49:20;;;;;;;24.00;11.50;;;;;;;26.08;53.09;97983.02;106791;1278;22690;-78
2023/06/20 07:51:47;;;;;;;10.30;6.90;;;;;;;26.22;52.86;97983.81;107345;1278;22549;-80
2023/06/20 07:54:16;;;;;;;8.70;6.40;;;;;;;26.32;51.16;97982.83;107262;1278;22648;-79
2023/06/20 07:56:43;;;;;;;11.60;6.90;;;;;;;26.42;50.75;97980.57;107229;1278;22545;-79
2023/06/20 07:59:09;;;;;;;8.30;6.10;;;;;;;26.52;51.04;97976.52;107362;1278;22551;-79
2023/06/20 08:01:36;;;;;;;8.60;6.20;;;;;;;26.61;49.60;97974.82;107345;1278;25617;-80
2023/06/20 08:04:03;;;;;;;14.50;7.00;;;;;;;26.68;49.72;97974.93;107348;1278;22547;-79
2023/06/20 08:06:29;;;;;;;9.90;7.20;;;;;;;26.78;48.20;97973.13;106753;1278;23098;-79
2023/06/20 08:08:56;;;;;;;9.40;7.50;;;;;;;26.87;49.10;97976.39;107282;1278;24851;-77
2023/06/20 08:11:23;;;;;;;7.60;6.60;;;;;;;27.02;49.24;97980.46;106830;1278;25313;-77
2023/06/20 08:13:50;;;;;;;9.30;6.90;;;;;;;27.13;48.79;97982.30;106805;1272;25346;-78
2023/06/20 08:16:17;;;;;;;12.30;7.40;;;;;;;27.30;48.86;97980.84;107347;1278;22567;-78
2023/06/20 08:18:44;;;;;;;8.00;6.70;;;;;;;27.42;46.95;97979.94;106717;1266;22532;-77
2023/06/20 08:21:11;;;;;;;9.90;6.90;;;;;;;27.41;45.85;97982.32;107214;1278;25545;-79
2023/06/20 08:23:37;;;;;;;13.40;7.40;;;;;;;27.46;45.47;97986.15;107250;1273;24230;-78
2023/06/20 08:26:04;;;;;;;8.20;6.20;;;;;;;27.49;46.20;97987.94;106790;1278;24214;-78
2023/06/20 08:28:30;;;;;;;8.50;6.70;;;;;;;27.64;46.08;97986.06;107348;1278;22652;-78
2023/06/20 08:30:57;;;;;;;10.00;6.40;;;;;;;27.79;44.84;97985.14;106780;1278;22915;-78
2023/06/20 08:33:24;;;;;;;7.70;6.30;;;;;;;27.77;43.58;97983.64;107398;1272;22524;-78
2023/06/20 08:35:50;;;;;;;7.00;6.20;;;;;;;27.74;43.80;97985.89;106620;1278;22645;-78
2023/06/20 08:38:17;;;;;;;9.20;6.70;;;;;;;27.74;43.85;97987.22;106596;1279;25346;-78
2023/06/20 08:40:44;;;;;;;8.90;6.90;;;;;;;27.79;43.22;97984.11;107273;1278;24249;-78
2023/06/20 08:43:17;;;;;;;10.60;7.40;;;;;;;27.85;42.80;97987.30;107332;1278;22593;-78
2023/06/20 08:45:45;;;;;;;8.30;5.80;;;;;;;27.99;43.61;97988.10;107391;1272;23971;-78
2023/06/20 08:48:11;;;;;;;10.90;6.80;;;;;;;28.12;42.35;97987.86;107354;1278;22573;-79
2023/06/20 08:50:38;;;;;;;7.90;6.40;;;;;;;28.24;41.75;97984.23;107385;1278;22640;-79
2023/06/20 08:53:07;;;;;;;9.60;6.80;;;;;;;28.33;41.73;97986.42;107333;1278;24200;-80
2023/06/20 08:55:36;;;;;;;9.70;6.90;;;;;;;28.45;42.22;97981.70;107348;1278;22799;-79
2023/06/20 08:58:07;;;;;;;8.40;7.00;;;;;;;28.55;41.03;97978.25;107399;1278;23372;-79
2023/06/20 09:00:34;;;;;;;7.90;6.90;;;;;;;28.51;38.81;97974.89;107373;1278;22736;-79
2023/06/20 09:03:00;;;;;;;11.90;6.60;;;;;;;28.52;40.50;97972.90;107227;1278;22534;-79
2023/06/20 09:05:32;;;;;;;8.40;7.00;;;;;;;28.73;41.07;97979.75;106736;1278;25233;-80
2023/06/20 09:07:58;;;;;;;8.50;6.70;;;;;;;28.88;39.09;97977.45;107587;1278;23906;-79
2023/06/20 09:10:25;;;;;;;9.10;6.20;;;;;;;28.78;39.08;97979.27;107292;1278;26163;-79
2023/06/20 09:12:58;;;;;;;9.20;6.20;;;;;;;28.75;37.87;97982.56;107352;1278;25360;-79
2023/06/20 09:15:26;;;;;;;9.10;6.00;;;;;;;28.76;38.87;97973.04;107550;1278;22561;-79
2023/06/20 09:17:55;;;;;;;10.40;6.50;;;;;;;28.88;39.24;97973.52;107351;1278;23093;-78
2023/06/20 09:20:27;;;;;;;9.10;6.60;;;;;;;28.97;39.04;97970.75;107163;1279;22581;-79
2023/06/20 09:22:55;;;;;;;8.80;6.20;;;;;;;29.12;38.18;97969.02;107125;1279;23413;-79
2023/06/20 09:25:27;;;;;;;9.10;6.30;;;;;;;29.29;38.25;97969.39;107119;1278;22587;-80
2023/06/20 09:27:55;;;;;;;7.40;6.60;;;;;;;29.31;36.52;97973.88;107169;1278;22545;-79
2023/06/20 09:30:22;;;;;;;7.10;6.30;;;;;;;29.21;35.17;97968.33;107146;1278;22584;-79
2023/06/20 09:32:52;;;;;;;10.20;6.90;;;;;;;28.99;35.85;97972.86;107156;1278;22566;-79
2023/06/20 09:35:20;;;;;;;8.70;6.90;;;;;;;28.94;35.82;97970.08;107021;1279;22545;-79
2023/06/20 09:37:49;;;;;;;7.80;6.50;;;;;;;28.93;35.61;97967.80;107157;1279;22662;-79
2023/06/20 09:40:18;;;;;;;8.00;6.20;;;;;;;28.86;35.67;97968.99;107180;1278;22660;-77
2023/06/20 09:42:46;;;;;;;7.30;6.50;;;;;;;28.87;36.75;97960.43;107123;1278;25396;-78
2023/06/20 09:45:15;;;;;;;9.10;6.40;;;;;;;29.03;35.60;97961.64;107077;1278;22548;-78
2023/06/20 09:47:43;;;;;;;7.90;6.30;;;;;;;29.05;35.52;97963.28;107082;1278;22547;-78
2023/06/20 09:50:17;;;;;;;7.90;6.50;;;;;;;29.09;36.53;97964.48;107135;1278;25409;-79
2023/06/20 09:52:55;;;;;;;7.40;6.30;;;;;;;29.29;35.63;97965.99;107182;1278;22570;-78
2023/06/20 09:55:24;;;;;;;7.80;5.80;;;;;;;29.33;35.43;97965.43;107529;1262;22603;-78
2023/06/20 09:57:53;;;;;;;9.10;6.60;;;;;;;29.25;33.95;97961.42;107113;1278;22530;-78
2023/06/20 10:00:22;;;;;;;8.00;6.50;;;;;;;29.03;33.79;97954.83;107053;1278;23187;-77
2023/06/20 10:02:49;;;;;;;10.80;6.50;;;;;;;28.92;33.98;97956.23;106700;1278;24241;-78
2023/06/20 10:05:18;;;;;;;8.60;6.80;;;;;;;28.91;34.61;97954.59;106677;1272;24256;-78
2023/06/20 10:07:47;;;;;;;7.60;6.50;;;;;;;29.09;34.92;97957.02;107287;1278;22622;-81
2023/06/20 10:10:16;;;;;;;9.20;6.90;;;;;;;29.30;34.82;97956.52;107291;1278;24371;-80
2023/06/20 10:12:45;;;;;;;10.50;6.30;;;;;;;29.48;34.40;97955.66;107405;1278;22602;-81
2023/06/20 10:15:16;;;;;;;8.20;6.20;;;;;;;29.47;33.68;97957.58;107190;1272;22536;-81
2023/06/20 10:17:47;;;;;;;6.80;6.10;;;;;;;29.48;33.85;97954.86;107137;1278;23152;-82
2023/06/20 10:20:34;;;;;;;9.40;6.30;;;;;;;29.57;33.61;97941.08;107129;1275;23347;-80
2023/06/20 10:23:04;;;;;;;7.10;6.40;;;;;;;29.77;34.13;97941.60;107162;1278;26634;-81
2023/06/20 10:25:32;;;;;;;11.10;6.60;;;;;;;29.80;32.98;97945.27;107249;1271;25328;-81
2023/06/20 10:28:03;;;;;;;7.30;6.10;;;;;;;29.65;32.87;97945.70;107216;1278;24606;-80
2023/06/20 10:30:56;;;;;;;8.60;7.10;;;;;;;29.70;33.36;97939.11;107260;1272;22668;-79
2023/06/20 10:33:33;;;;;;;8.60;6.30;;;;;;;29.68;32.80;97935.10;107168;1278;25986;-77
2023/06/20 10:36:08;;;;;;;8.50;6.20;;;;;;;29.71;33.15;97934.64;107193;1278;22619;-78
2023/06/20 10:38:57;;;;;;;9.10;6.90;;;;;;;29.97;32.82;97932.23;107147;1278;22677;-78
2023/06/20 10:41:26;;;;;;;8.90;5.80;;;;;;;30.05;31.84;97932.93;107114;1278;25281;-77
2023/06/20 10:43:58;;;;;;;9.20;6.30;;;;;;;30.03;31.51;97931.38;106631;1278;22559;-77
2023/06/20 10:46:30;;;;;;;6.80;5.90;;;;;;;29.98;31.76;97931.41;107136;1278;22558;-77
2023/06/20 10:48:56;;;;;;;8.30;6.20;;;;;;;29.91;32.09;97929.12;106998;1278;22788;-77
2023/06/20 10:51:23;;;;;;;8.30;6.10;;;;;;;30.09;32.76;97922.14;106715;1278;25464;-78
2023/06/20 10:53:50;;;;;;;7.10;6.40;;;;;;;30.40;32.98;97918.16;107035;1278;22545;-77
2023/06/20 10:56:27;;;;;;;12.30;6.90;;;;;;;30.68;32.87;97915.55;106766;1278;22579;-77
2023/06/20 10:58:53;;;;;;;7.80;6.50;;;;;;;31.02;33.05;97918.16;106687;1278;25607;-78
2023/06/20 11:01:26;;;;;;;10.40;6.40;;;;;;;31.36;32.06;97921.00;107140;1278;22527;-77
2023/06/20 11:03:52;;;;;;;7.50;6.40;;;;;;;31.39;30.92;97916.15;107163;1278;25623;-77
2023/06/20 11:06:19;;;;;;;9.80;6.40;;;;;;;31.22;29.63;97919.42;107145;1278;22543;-77
2023/06/20 11:08:46;;;;;;;12.40;6.30;;;;;;;30.96;30.00;97922.92;107208;1278;22634;-77
2023/06/20 11:11:12;;;;;;;7.40;6.30;;;;;;;30.91;29.90;97922.44;107248;1276;22785;-76
2023/06/20 11:13:42;;;;;;;6.50;5.90;;;;;;;30.91;29.58;97916.77;107180;1278;23931;-77
2023/06/20 11:16:19;;;;;;;8.30;5.80;;;;;;;30.82;30.27;97913.58;107281;1278;22566;-77
2023/06/20 11:18:46;;;;;;;8.50;5.70;;;;;;;30.64;29.86;97916.60;106669;1278;22587;-76
2023/06/20 11:21:15;;;;;;;8.50;5.90;;;;;;;30.31;30.36;97916.52;106679;1278;24193;-77
2023/06/20 11:23:42;;;;;;;8.80;6.20;;;;;;;30.31;30.62;97917.48;106665;1278;25364;-78
2023/06/20 11:26:08;;;;;;;7.30;6.60;;;;;;;30.16;30.67;97917.39;106654;1278;25697;-76